createdAt,value
2019-01-28T00:00:38.221Z,5.83
2019-01-28T00:03:46.067Z,6.20
2019-01-28T00:06:12.781Z,5.63
2019-01-28T00:08:39.784Z,6.57
2019-01-28T00:11:06.756Z,5.43
2019-01-28T00:13:33.950Z,6.03
2019-01-28T00:16:00.799Z,6.17
2019-01-28T00:18:27.585Z,6.07
2019-01-28T00:20:54.324Z,5.77
2019-01-28T00:23:20.951Z,6.57
2019-01-28T00:25:47.867Z,6.47
2019-01-28T00:28:14.737Z,6.90
2019-01-28T00:30:41.467Z,6.67
2019-01-28T00:33:08.275Z,6.43
2019-01-28T00:35:35.028Z,6.27
2019-01-28T00:38:02.038Z,6.27
2019-01-28T00:40:28.936Z,6.87
2019-01-28T00:42:55.963Z,6.30
2019-01-28T00:45:22.810Z,6.10
2019-01-28T00:47:49.855Z,7.07
2019-01-28T00:50:16.696Z,7.47
2019-01-28T00:52:43.575Z,6.10
2019-01-28T00:55:51.493Z,6.57
2019-01-28T00:58:18.247Z,6.67
2019-01-28T01:00:45.079Z,6.90
2019-01-28T01:03:12.296Z,8.07
2019-01-28T01:05:39.405Z,7.30
2019-01-28T01:08:06.235Z,7.63
2019-01-28T01:10:33.425Z,7.70
2019-01-28T01:13:00.162Z,7.90
2019-01-28T01:15:26.921Z,7.73
2019-01-28T01:17:53.825Z,9.77
2019-01-28T01:20:20.563Z,8.77
2019-01-28T01:22:47.322Z,9.33
2019-01-28T01:25:14.260Z,14.10
2019-01-28T01:28:00.605Z,9.47
2019-01-28T01:30:27.677Z,9.10
2019-01-28T01:32:54.406Z,10.47
2019-01-28T01:35:21.252Z,11.23
2019-01-28T01:37:48.045Z,10.07
2019-01-28T01:40:15.277Z,9.90
2019-01-28T01:42:55.148Z,9.00
2019-01-28T01:45:21.997Z,11.03
2019-01-28T01:47:48.744Z,11.37
2019-01-28T01:50:15.568Z,10.10
2019-01-28T01:52:42.674Z,9.70
2019-01-28T01:55:10.893Z,12.27
2019-01-28T01:57:37.901Z,10.40
2019-01-28T02:00:46.828Z,10.73
2019-01-28T02:03:13.980Z,12.10
2019-01-28T02:05:40.714Z,11.23
2019-01-28T02:08:07.435Z,12.73
2019-01-28T02:10:34.612Z,12.17
2019-01-28T02:13:01.709Z,15.30
2019-01-28T02:15:28.434Z,14.03
2019-01-28T02:17:55.257Z,14.40
2019-01-28T02:20:22.123Z,13.90
2019-01-28T02:22:49.333Z,14.27
2019-01-28T02:25:16.124Z,16.87
2019-01-28T02:27:42.948Z,15.27
2019-01-28T02:30:11.947Z,15.73
2019-01-28T02:32:38.798Z,17.57
2019-01-28T02:35:06.011Z,16.03
2019-01-28T02:37:32.919Z,17.40
2019-01-28T02:39:59.901Z,18.13
2019-01-28T02:42:26.631Z,20.70
2019-01-28T02:45:06.276Z,17.03
2019-01-28T02:47:33.010Z,18.03
2019-01-28T02:49:59.770Z,15.63
2019-01-28T02:52:26.447Z,14.70
2019-01-28T02:54:53.176Z,15.83
2019-01-28T02:57:20.258Z,15.83
2019-01-28T02:59:47.281Z,18.17
2019-01-28T03:02:14.003Z,21.00
2019-01-28T03:04:40.631Z,16.43
2019-01-28T03:07:07.556Z,17.87
2019-01-28T03:09:34.284Z,14.47
2019-01-28T03:12:01.511Z,13.37
2019-01-28T03:14:28.742Z,15.83
2019-01-28T03:17:07.480Z,15.13
2019-01-28T03:19:34.393Z,15.23
2019-01-28T03:22:01.115Z,11.23
2019-01-28T03:24:27.862Z,15.70
2019-01-28T03:26:54.688Z,11.17
2019-01-28T03:29:21.584Z,12.63
2019-01-28T03:31:48.311Z,13.07
2019-01-28T03:34:15.233Z,12.17
2019-01-28T03:36:41.958Z,11.50
2019-01-28T03:39:08.698Z,15.80
2019-01-28T03:41:35.803Z,9.80
2019-01-28T03:44:02.917Z,13.10
2019-01-28T03:46:29.998Z,9.70
2019-01-28T03:48:57.117Z,10.70
2019-01-28T03:51:24.106Z,12.07
2019-01-28T03:53:50.947Z,9.53
2019-01-28T03:56:17.835Z,11.53
2019-01-28T03:58:44.676Z,9.77
2019-01-28T04:01:11.688Z,11.60
2019-01-28T04:03:38.535Z,10.27
2019-01-28T04:06:05.277Z,8.67
2019-01-28T04:08:32.411Z,12.00
2019-01-28T04:10:59.535Z,9.47
2019-01-28T04:13:26.276Z,9.50
2019-01-28T04:15:53.145Z,9.83
2019-01-28T04:18:19.999Z,10.57
2019-01-28T04:20:46.723Z,6.37
2019-01-28T04:23:13.474Z,9.63
2019-01-28T04:25:40.294Z,7.10
2019-01-28T04:28:07.166Z,9.13
2019-01-28T04:30:34.430Z,6.17
2019-01-28T04:33:01.283Z,9.30
2019-01-28T04:35:28.019Z,9.03
2019-01-28T04:37:54.764Z,5.33
2019-01-28T04:40:21.661Z,9.90
2019-01-28T04:42:48.511Z,8.97
2019-01-28T04:45:16.188Z,5.67
2019-01-28T04:47:43.427Z,4.47
2019-01-28T04:50:12.696Z,6.03
2019-01-28T04:52:39.430Z,4.33
2019-01-28T04:55:06.536Z,8.30
2019-01-28T04:57:33.373Z,7.60
2019-01-28T05:00:00.280Z,4.97
2019-01-28T05:02:27.091Z,6.43
2019-01-28T05:04:54.108Z,7.33
2019-01-28T05:07:20.944Z,6.90
2019-01-28T05:09:48.132Z,6.17
2019-01-28T05:12:14.984Z,5.17
2019-01-28T05:14:42.032Z,4.83
2019-01-28T05:17:08.943Z,5.20
2019-01-28T05:19:35.683Z,8.73
2019-01-28T05:22:02.439Z,8.13
2019-01-28T05:24:29.511Z,8.83
2019-01-28T05:26:56.378Z,8.97
2019-01-28T05:29:23.318Z,11.33
2019-01-28T05:31:50.293Z,6.23
2019-01-28T05:34:17.034Z,11.20
2019-01-28T05:36:43.998Z,9.70
2019-01-28T05:39:10.816Z,10.10
2019-01-28T05:41:37.706Z,7.50
2019-01-28T05:44:04.765Z,7.97
2019-01-28T05:46:31.550Z,8.10
2019-01-28T05:48:58.622Z,9.03
2019-01-28T05:51:25.453Z,8.83
2019-01-28T05:53:52.307Z,8.03
2019-01-28T05:56:19.163Z,9.10
2019-01-28T05:58:45.810Z,8.87
2019-01-28T06:01:12.598Z,9.60
2019-01-28T06:03:39.624Z,8.63
2019-01-28T06:06:06.375Z,12.00
2019-01-28T06:08:33.163Z,8.43
2019-01-28T06:11:00.021Z,8.37
2019-01-28T06:13:27.003Z,13.70
2019-01-28T06:15:54.032Z,12.60
2019-01-28T06:18:20.768Z,13.60
2019-01-28T06:20:47.495Z,14.00
2019-01-28T06:23:14.385Z,12.03
2019-01-28T06:25:41.220Z,11.47
2019-01-28T06:28:07.949Z,10.70
2019-01-28T06:30:54.319Z,13.53
2019-01-28T06:33:21.492Z,14.20
2019-01-28T06:35:48.215Z,14.17
2019-01-28T06:38:15.188Z,15.33
2019-01-28T06:41:22.946Z,17.43
2019-01-28T06:43:49.779Z,13.10
2019-01-28T06:46:16.604Z,16.17
2019-01-28T06:48:43.631Z,19.07
2019-01-28T06:51:10.601Z,16.63
2019-01-28T06:53:37.694Z,15.20
2019-01-28T06:56:04.537Z,15.73
2019-01-28T06:58:31.520Z,16.47
2019-01-28T07:00:58.154Z,17.37
2019-01-28T07:03:25.418Z,16.13
2019-01-28T07:05:52.317Z,14.13
2019-01-28T07:08:19.160Z,15.00
2019-01-28T07:10:45.902Z,15.47
2019-01-28T07:13:12.711Z,14.60
2019-01-28T07:15:39.557Z,17.67
2019-01-28T07:18:06.390Z,15.20
2019-01-28T07:20:33.481Z,16.00
2019-01-28T07:23:00.682Z,18.73
2019-01-28T07:25:27.597Z,21.40
2019-01-28T07:27:54.560Z,20.17
2019-01-28T07:30:44.135Z,18.83
2019-01-28T07:33:10.928Z,15.47
2019-01-28T07:35:37.665Z,17.57
2019-01-28T07:38:04.507Z,18.30
2019-01-28T07:40:31.590Z,17.03
2019-01-28T07:42:58.434Z,17.47
2019-01-28T07:45:30.006Z,17.73
2019-01-28T07:48:02.702Z,17.07
2019-01-28T07:50:25.567Z,20.77
2019-01-28T07:52:52.402Z,17.60
2019-01-28T07:55:19.289Z,18.23
2019-01-28T07:57:46.116Z,20.63
2019-01-28T08:00:55.861Z,19.50
2019-01-28T08:03:22.681Z,16.43
2019-01-28T08:05:49.651Z,16.83
2019-01-28T08:08:18.499Z,15.07
2019-01-28T08:10:45.613Z,13.40
2019-01-28T08:13:12.548Z,20.17
2019-01-28T08:15:39.653Z,19.50
2019-01-28T08:18:10.888Z,18.07
2019-01-28T08:20:35.639Z,19.67
2019-01-28T08:26:16.842Z,18.67
2019-01-28T08:28:44.009Z,19.00
2019-01-28T08:31:12.212Z,18.37
2019-01-28T08:33:40.972Z,17.17
2019-01-28T08:36:07.941Z,15.27
2019-01-28T08:38:35.564Z,15.27
2019-01-28T08:41:03.089Z,13.17
2019-01-28T08:43:29.981Z,13.30
2019-01-28T08:45:56.984Z,13.77
2019-01-28T08:48:46.110Z,12.53
2019-01-28T08:51:12.982Z,12.83
2019-01-28T08:53:39.773Z,12.70
2019-01-28T08:56:07.000Z,14.13
2019-01-28T08:58:34.854Z,11.80
2019-01-28T09:01:02.668Z,11.43
2019-01-28T09:03:30.895Z,11.73
2019-01-28T09:05:58.488Z,12.67
2019-01-28T09:08:25.875Z,10.90
2019-01-28T09:10:52.732Z,14.23
2019-01-28T09:13:19.667Z,13.03
2019-01-28T09:15:46.944Z,9.90
2019-01-28T09:18:33.384Z,10.30
2019-01-28T09:21:00.419Z,12.87
2019-01-28T09:23:27.601Z,9.97
2019-01-28T09:25:54.609Z,10.07
2019-01-28T09:28:21.647Z,10.40
2019-01-28T09:30:48.954Z,10.75
2019-01-28T09:33:17.669Z,10.03
2019-01-28T09:35:44.526Z,11.00
2019-01-28T09:38:11.259Z,8.83
2019-01-28T09:40:38.348Z,7.57
2019-01-28T09:43:05.528Z,9.93
2019-01-28T09:45:34.473Z,10.63
2019-01-28T09:48:01.755Z,8.37
2019-01-28T09:50:28.689Z,6.10
2019-01-28T09:53:36.930Z,8.57
2019-01-28T09:56:16.646Z,7.47
2019-01-28T09:58:43.429Z,6.93
2019-01-28T10:01:10.273Z,8.40
2019-01-28T10:03:37.015Z,11.00
2019-01-28T10:06:04.194Z,11.77
2019-01-28T10:08:31.039Z,7.37
2019-01-28T10:10:57.774Z,8.50
2019-01-28T10:13:27.292Z,6.93
2019-01-28T10:15:54.278Z,5.53
2019-01-28T10:18:21.378Z,6.67
2019-01-28T10:20:48.721Z,5.77
2019-01-28T10:23:15.564Z,7.03
2019-01-28T10:25:43.110Z,7.27
2019-01-28T10:28:10.008Z,8.90
2019-01-28T10:30:38.561Z,6.57
2019-01-28T10:33:07.130Z,5.47
2019-01-28T10:36:15.221Z,5.53
2019-01-28T10:38:42.697Z,4.57
2019-01-28T10:41:09.687Z,4.87
2019-01-28T10:43:36.723Z,4.60
2019-01-28T10:46:03.566Z,4.90
2019-01-28T10:48:30.543Z,5.00
2019-01-28T10:50:57.515Z,4.97
2019-01-28T10:53:24.487Z,4.40
2019-01-28T10:55:51.352Z,4.40
2019-01-28T10:58:18.474Z,5.47
2019-01-28T11:00:47.753Z,6.33
2019-01-28T11:03:16.897Z,5.70
2019-01-28T11:05:43.903Z,4.43
2019-01-28T11:08:10.649Z,5.77
2019-01-28T11:10:37.780Z,4.10
2019-01-28T11:13:05.591Z,4.33
2019-01-28T11:15:32.375Z,6.07
2019-01-28T11:17:59.289Z,5.40
2019-01-28T11:20:27.135Z,5.03
2019-01-28T11:22:54.045Z,4.87
2019-01-28T11:25:22.990Z,3.87
2019-01-28T11:27:50.056Z,3.77
2019-01-28T11:33:28.120Z,6.47
2019-01-28T11:35:54.972Z,5.67
2019-01-28T11:38:22.292Z,4.50
2019-01-28T11:40:49.344Z,3.57
2019-01-28T11:43:16.268Z,4.63
2019-01-28T11:45:46.569Z,5.87
2019-01-28T11:48:13.807Z,3.83
2019-01-28T11:51:21.915Z,4.37
2019-01-28T11:53:49.059Z,2.63
2019-01-28T11:56:15.833Z,3.13
2019-01-28T11:58:43.399Z,2.90
2019-01-28T12:01:30.332Z,6.07
2019-01-28T12:03:57.553Z,3.43
2019-01-28T12:06:24.859Z,4.37
2019-01-28T12:08:51.661Z,3.70
2019-01-28T12:11:18.734Z,4.80
2019-01-28T12:13:45.850Z,2.90
2019-01-28T12:16:12.755Z,2.93
2019-01-28T12:18:59.148Z,3.50
2019-01-28T12:21:26.063Z,2.57
2019-01-28T12:23:53.441Z,5.23
2019-01-28T12:26:20.555Z,3.23
2019-01-28T12:28:47.528Z,3.67
2019-01-28T12:31:14.835Z,3.47
2019-01-28T12:34:01.227Z,2.67
2019-01-28T12:36:28.067Z,3.43
2019-01-28T12:38:55.036Z,2.90
2019-01-28T12:41:41.652Z,2.50
2019-01-28T12:44:09.642Z,3.47
2019-01-28T12:46:36.822Z,3.03
2019-01-28T12:49:44.726Z,3.77
2019-01-28T12:52:11.482Z,3.37
2019-01-28T12:54:38.554Z,3.03
2019-01-28T12:57:05.376Z,2.03
2019-01-28T12:59:32.494Z,2.03
2019-01-28T13:01:59.733Z,2.90
2019-01-28T13:04:26.665Z,3.27
2019-01-28T13:06:53.416Z,2.00
2019-01-28T13:09:20.167Z,2.63
2019-01-28T13:11:47.097Z,2.07
2019-01-28T13:14:13.955Z,1.93
2019-01-28T13:16:40.929Z,2.60
2019-01-28T13:19:07.737Z,2.60
2019-01-28T13:21:34.895Z,2.43
2019-01-28T13:24:02.670Z,2.90
2019-01-28T13:26:29.601Z,3.50
2019-01-28T13:28:56.431Z,2.50
2019-01-28T13:31:23.280Z,2.50
2019-01-28T13:33:50.077Z,2.13
2019-01-28T13:36:16.815Z,3.33
2019-01-28T13:38:43.702Z,2.60
2019-01-28T13:41:10.662Z,2.00
2019-01-28T13:43:37.698Z,2.43
2019-01-28T13:46:04.451Z,2.90
2019-01-28T13:48:31.557Z,1.80
2019-01-28T13:50:58.398Z,2.40
2019-01-28T13:53:25.282Z,1.50
2019-01-28T13:55:55.359Z,2.77
2019-01-28T13:58:22.105Z,2.77
2019-01-28T14:00:49.431Z,1.60
2019-01-28T14:03:16.568Z,1.73
2019-01-28T14:06:03.827Z,2.30
2019-01-28T14:08:33.252Z,2.77
2019-01-28T14:11:00.474Z,2.50
2019-01-28T14:13:28.598Z,2.97
2019-01-28T14:15:56.609Z,2.07
2019-01-28T14:23:59.430Z,4.13
2019-01-28T14:29:18.968Z,1.90
2019-01-28T14:34:34.303Z,2.20
2019-01-28T14:37:04.764Z,3.33
2019-01-28T14:39:58.718Z,2.67
2019-01-28T14:43:07.102Z,4.83
2019-01-28T14:45:34.089Z,2.33
2019-01-28T14:48:00.966Z,4.93
2019-01-28T14:50:29.622Z,3.27
2019-01-28T14:52:56.619Z,2.10
2019-01-28T14:55:23.496Z,3.60
2019-01-28T14:57:50.389Z,2.10
2019-01-28T15:00:23.101Z,3.30
2019-01-28T15:02:53.963Z,2.23
2019-01-28T15:05:21.089Z,2.40
2019-01-28T15:07:48.134Z,4.33
2019-01-28T15:10:16.137Z,2.23
2019-01-28T15:12:52.662Z,2.17
2019-01-28T15:15:21.951Z,2.03
2019-01-28T15:17:48.669Z,1.60
2019-01-28T15:20:15.664Z,3.53
2019-01-28T15:22:42.556Z,2.77
2019-01-28T15:25:09.872Z,1.80
2019-01-28T15:27:36.909Z,2.23
2019-01-28T15:30:26.222Z,2.10
2019-01-28T15:32:53.387Z,2.20
2019-01-28T15:35:20.459Z,2.97
2019-01-28T15:37:47.390Z,2.27
2019-01-28T15:40:56.689Z,3.27
2019-01-28T15:43:23.688Z,2.60
2019-01-28T15:45:50.508Z,2.70
2019-01-28T15:48:17.401Z,2.83
2019-01-28T15:50:44.249Z,2.27
2019-01-28T15:53:11.109Z,2.40
2019-01-28T15:55:39.840Z,2.63
2019-01-28T15:58:07.824Z,2.23
2019-01-28T16:00:35.067Z,4.17
2019-01-28T16:03:22.105Z,3.80
2019-01-28T16:05:49.083Z,3.97
2019-01-28T16:08:16.315Z,4.37
2019-01-28T16:10:43.111Z,4.67
2019-01-28T16:13:10.391Z,3.93
2019-01-28T16:15:42.584Z,6.10
2019-01-28T16:18:50.681Z,2.97
2019-01-28T16:21:18.011Z,2.87
2019-01-28T16:23:44.649Z,2.57
2019-01-28T16:26:11.753Z,2.47
2019-01-28T16:28:38.966Z,2.57
2019-01-28T16:31:05.708Z,3.63
2019-01-28T16:33:32.673Z,2.60
2019-01-28T16:35:59.405Z,4.30
2019-01-28T16:38:26.515Z,3.97
2019-01-28T16:40:53.964Z,4.73
2019-01-28T16:43:20.818Z,4.87
2019-01-28T16:45:47.686Z,3.83
2019-01-28T16:48:14.617Z,4.90
2019-01-28T16:50:42.291Z,3.97
2019-01-28T16:53:09.114Z,3.53
2019-01-28T16:55:36.228Z,3.97
2019-01-28T16:58:24.381Z,4.00
2019-01-28T17:00:51.238Z,4.00
2019-01-28T17:03:18.636Z,4.67
2019-01-28T17:05:45.529Z,4.57
2019-01-28T17:08:12.530Z,4.97
2019-01-28T17:10:39.277Z,4.20
2019-01-28T17:13:07.015Z,4.07
2019-01-28T17:15:33.977Z,3.97
2019-01-28T17:18:01.155Z,4.80
2019-01-28T17:20:35.145Z,5.07
2019-01-28T17:22:57.283Z,4.80
2019-01-28T17:25:27.134Z,5.90
2019-01-28T17:27:53.967Z,4.90
2019-01-28T17:30:41.337Z,7.03
2019-01-28T17:33:08.305Z,5.47
2019-01-28T17:35:35.276Z,5.63
2019-01-28T17:38:02.118Z,4.70
2019-01-28T17:40:28.945Z,4.67
2019-01-28T17:42:55.979Z,5.97
2019-01-28T17:45:42.393Z,6.47
2019-01-28T17:48:09.371Z,6.90
2019-01-28T17:50:43.282Z,5.93
2019-01-28T17:53:46.341Z,6.57
2019-01-28T17:56:13.183Z,6.70
2019-01-28T17:58:39.924Z,6.70
2019-01-28T18:01:06.694Z,6.10
2019-01-28T18:03:33.813Z,7.13
2019-01-28T18:06:00.928Z,7.03
2019-01-28T18:08:27.938Z,6.53
2019-01-28T18:10:55.192Z,6.83
2019-01-28T18:13:22.014Z,6.37
2019-01-28T18:15:49.250Z,7.17
2019-01-28T18:18:16.078Z,8.47
2019-01-28T18:20:42.923Z,6.37
2019-01-28T18:23:16.787Z,7.27
2019-01-28T18:25:43.524Z,7.23
2019-01-28T18:28:10.632Z,6.80
2019-01-28T18:30:40.676Z,7.40
2019-01-28T18:33:07.523Z,7.47
2019-01-28T18:35:35.368Z,11.07
2019-01-28T18:38:02.355Z,9.63
2019-01-28T18:40:29.082Z,9.40
2019-01-28T18:42:55.819Z,8.30
2019-01-28T18:45:23.169Z,7.13
2019-01-28T18:47:49.901Z,8.13
2019-01-28T18:50:16.736Z,7.23
2019-01-28T18:52:44.207Z,6.93
2019-01-28T18:55:11.089Z,7.20
2019-01-28T18:57:37.917Z,7.67
2019-01-28T19:00:10.180Z,7.63
2019-01-28T19:02:36.921Z,7.33
2019-01-28T19:07:57.125Z,7.27
2019-01-28T19:10:45.102Z,7.97
2019-01-28T19:13:17.391Z,8.43
2019-01-28T19:15:49.851Z,8.40
2019-01-28T19:18:55.784Z,9.00
2019-01-28T19:21:30.946Z,8.23
2019-01-28T19:23:58.196Z,8.90
2019-01-28T19:26:24.911Z,8.93
2019-01-28T19:29:32.719Z,8.57
2019-01-28T19:31:59.453Z,9.27
2019-01-28T19:34:26.619Z,9.20
2019-01-28T19:36:53.503Z,10.33
2019-01-28T19:39:20.335Z,12.07
2019-01-28T19:41:47.346Z,10.10
2019-01-28T19:44:14.082Z,9.23
2019-01-28T19:46:40.941Z,9.10
2019-01-28T19:49:07.738Z,8.90
2019-01-28T19:51:34.588Z,9.13
2019-01-28T19:54:01.693Z,9.63
2019-01-28T19:56:28.604Z,8.70
2019-01-28T19:58:55.495Z,9.67
2019-01-28T20:01:22.243Z,10.43
2019-01-28T20:03:49.980Z,9.60
2019-01-28T20:06:17.150Z,11.90
2019-01-28T20:08:44.548Z,10.00
2019-01-28T20:11:11.731Z,9.90
2019-01-28T20:13:38.515Z,9.83
2019-01-28T20:16:05.288Z,10.43
2019-01-28T20:18:32.289Z,9.90
2019-01-28T20:21:23.719Z,11.67
2019-01-28T20:23:47.935Z,11.63
2019-01-28T20:26:14.936Z,10.67
2019-01-28T20:28:42.363Z,12.53
2019-01-28T20:31:09.602Z,13.53
2019-01-28T20:33:36.342Z,12.63
2019-01-28T20:36:03.501Z,13.40
2019-01-28T20:38:30.541Z,13.20
2019-01-28T20:40:57.277Z,13.77
2019-01-28T20:43:24.434Z,14.20
2019-01-28T20:45:51.468Z,14.20
2019-01-28T20:48:18.243Z,15.23
2019-01-28T20:50:45.268Z,14.60
2019-01-28T20:53:12.018Z,13.53
2019-01-28T20:55:39.470Z,14.30
2019-01-28T20:58:06.380Z,15.47
2019-01-28T21:00:33.091Z,16.77
2019-01-28T21:02:59.949Z,15.10
2019-01-28T21:05:26.898Z,14.43
2019-01-28T21:07:53.780Z,18.43
2019-01-28T21:10:20.783Z,16.17
2019-01-28T21:13:10.129Z,17.87
2019-01-28T21:15:36.863Z,16.27
2019-01-28T21:18:03.689Z,16.03
2019-01-28T21:20:30.965Z,17.20
2019-01-28T21:22:57.880Z,18.53
2019-01-28T21:25:24.621Z,18.50
2019-01-28T21:27:51.602Z,17.87
2019-01-28T21:30:21.131Z,18.10
2019-01-28T21:32:48.257Z,20.97
2019-01-28T21:35:15.330Z,20.67
2019-01-28T21:38:02.083Z,16.50
2019-01-28T21:40:29.099Z,18.97
2019-01-28T21:42:56.326Z,19.43
2019-01-28T21:45:42.976Z,18.67
2019-01-28T21:48:29.878Z,19.83
2019-01-28T21:50:57.065Z,21.93
2019-01-28T21:53:23.806Z,20.90
2019-01-28T21:55:50.955Z,20.50
2019-01-28T21:58:18.022Z,20.97
2019-01-28T22:00:45.016Z,21.00
2019-01-28T22:03:12.074Z,20.37
2019-01-28T22:05:39.038Z,22.30
2019-01-28T22:08:05.884Z,22.43
2019-01-28T22:10:32.726Z,20.37
2019-01-28T22:12:59.593Z,23.37
2019-01-28T22:15:38.998Z,22.23
2019-01-28T22:18:05.936Z,23.87
2019-01-28T22:20:32.706Z,23.90
2019-01-28T22:22:59.568Z,24.33
2019-01-28T22:25:26.700Z,25.63
2019-01-28T22:27:57.390Z,23.83
2019-01-28T22:30:22.164Z,22.63
2019-01-28T22:33:09.104Z,23.03
2019-01-28T22:35:35.948Z,25.40
2019-01-28T22:38:02.888Z,25.83
2019-01-28T22:40:30.303Z,23.97
2019-01-28T22:42:57.035Z,27.00
2019-01-28T22:45:23.941Z,25.13
2019-01-28T22:47:50.997Z,26.17
2019-01-28T22:50:17.834Z,26.70
2019-01-28T22:52:44.695Z,26.90
2019-01-28T22:55:33.535Z,27.80
2019-01-28T22:58:00.392Z,27.40
2019-01-28T23:01:10.620Z,25.30
2019-01-28T23:03:37.356Z,24.50
2019-01-28T23:06:04.090Z,25.43
2019-01-28T23:08:31.609Z,27.33
2019-01-28T23:10:58.591Z,28.33
2019-01-28T23:13:25.333Z,28.07
2019-01-28T23:16:06.375Z,29.33
2019-01-28T23:18:35.211Z,28.30
2019-01-28T23:21:24.782Z,29.20
2019-01-28T23:23:53.647Z,27.90
2019-01-28T23:26:22.796Z,29.37
2019-01-28T23:28:51.178Z,30.47
2019-01-28T23:31:19.135Z,31.43
2019-01-28T23:33:50.011Z,30.43
2019-01-28T23:36:18.839Z,33.57
2019-01-28T23:39:06.583Z,33.63
2019-01-28T23:41:34.843Z,32.93
2019-01-28T23:44:03.642Z,29.73
2019-01-28T23:46:32.251Z,32.00
2019-01-28T23:49:20.002Z,32.93
2019-01-28T23:51:51.436Z,32.13
2019-01-28T23:54:20.630Z,29.77
2019-01-28T23:56:49.328Z,29.67
2019-01-28T23:59:19.966Z,36.00
